createdAt,value
2023-05-11T00:00:15.635Z,101066.00
2023-05-11T00:02:43.544Z,101064.00
2023-05-11T00:05:10.968Z,101061.00
2023-05-11T00:07:38.096Z,101058.00
2023-05-11T00:10:06.241Z,101066.00
2023-05-11T00:12:33.604Z,101066.00
2023-05-11T00:15:01.116Z,101058.00
2023-05-11T00:17:28.473Z,101059.00
2023-05-11T00:19:55.778Z,101056.00
2023-05-11T00:22:22.935Z,101062.00
2023-05-11T00:24:50.021Z,101062.00
2023-05-11T00:27:17.309Z,101064.00
2023-05-11T00:29:44.539Z,101066.00
2023-05-11T00:32:11.731Z,101060.00
2023-05-11T00:34:38.915Z,101072.00
2023-05-11T00:37:06.052Z,101063.00
2023-05-11T00:39:38.716Z,101071.00
2023-05-11T00:42:06.589Z,101063.00
2023-05-11T00:44:33.915Z,101067.00
2023-05-11T00:47:01.314Z,101072.00
2023-05-11T00:49:30.247Z,101069.00
2023-05-11T00:51:57.964Z,101076.00
2023-05-11T00:54:25.862Z,101071.00
2023-05-11T00:56:53.009Z,101055.00
2023-05-11T00:59:20.326Z,101054.00
2023-05-11T01:01:47.577Z,101063.00
2023-05-11T01:04:14.907Z,101069.00
2023-05-11T01:06:52.134Z,101065.00
2023-05-11T01:09:22.283Z,101058.00
2023-05-11T01:12:08.961Z,101066.00
2023-05-11T01:15:12.959Z,101070.00
2023-05-11T01:17:56.250Z,101064.00
2023-05-11T01:20:29.621Z,101071.00
2023-05-11T01:23:53.614Z,101072.00
2023-05-11T01:26:59.578Z,101074.00
2023-05-11T01:30:23.215Z,101072.00
2023-05-11T01:32:51.454Z,101073.00
2023-05-11T01:35:26.087Z,101068.00
2023-05-11T01:38:00.139Z,101070.00
2023-05-11T01:40:33.644Z,101071.00
2023-05-11T01:43:08.289Z,101079.00
2023-05-11T01:45:41.947Z,101075.00
2023-05-11T01:48:17.766Z,101065.00
2023-05-11T01:50:46.643Z,101074.00
2023-05-11T01:53:17.636Z,101082.00
2023-05-11T01:55:48.414Z,101074.00
2023-05-11T01:58:17.826Z,101076.00
2023-05-11T02:00:46.318Z,101081.00
2023-05-11T02:03:15.723Z,101071.00
2023-05-11T02:05:44.961Z,101083.00
2023-05-11T02:08:15.150Z,101080.00
2023-05-11T02:10:43.547Z,101076.00
2023-05-11T02:13:11.120Z,101072.00
2023-05-11T02:15:42.332Z,101077.00
2023-05-11T02:18:16.002Z,101079.00
2023-05-11T02:20:47.570Z,101068.00
2023-05-11T02:23:17.330Z,101085.00
2023-05-11T02:25:45.619Z,101079.00
2023-05-11T02:28:12.832Z,101084.00
2023-05-11T02:30:48.650Z,101071.00
2023-05-11T02:33:25.392Z,101075.00
2023-05-11T02:35:56.693Z,101077.00
2023-05-11T02:38:30.997Z,101079.00
2023-05-11T02:41:02.271Z,101071.00
2023-05-11T02:43:35.870Z,101077.00
2023-05-11T02:46:09.146Z,101077.00
2023-05-11T02:48:45.155Z,101074.00
2023-05-11T02:51:15.808Z,101082.00
2023-05-11T02:53:46.016Z,101076.00
2023-05-11T02:56:14.172Z,101073.00
2023-05-11T02:58:41.496Z,101075.00
2023-05-11T03:01:08.960Z,101078.00
2023-05-11T03:03:36.510Z,101080.00
2023-05-11T03:06:04.024Z,101087.00
2023-05-11T03:08:31.253Z,101075.00
2023-05-11T03:10:59.528Z,101073.00
2023-05-11T03:13:28.233Z,101074.00
2023-05-11T03:15:56.390Z,101075.00
2023-05-11T03:18:24.537Z,101069.00
2023-05-11T03:20:52.641Z,101077.00
2023-05-11T03:23:20.756Z,101071.00
2023-05-11T03:25:48.574Z,101075.00
2023-05-11T03:28:18.791Z,101065.00
2023-05-11T03:30:48.378Z,101075.00
2023-05-11T03:33:15.626Z,101063.00
2023-05-11T03:35:45.789Z,101065.00
2023-05-11T03:38:16.241Z,101069.00
2023-05-11T03:40:46.081Z,101064.00
2023-05-11T03:43:19.484Z,101075.00
2023-05-11T03:45:50.234Z,101067.00
2023-05-11T03:48:19.167Z,101076.00
2023-05-11T03:50:47.840Z,101063.00
2023-05-11T03:53:16.364Z,101066.00
2023-05-11T03:55:43.504Z,101062.00
2023-05-11T03:58:11.339Z,101069.00
2023-05-11T04:00:42.964Z,101063.00
2023-05-11T04:03:10.720Z,101055.00
2023-05-11T04:05:38.010Z,101065.00
2023-05-11T04:08:06.507Z,101069.00
2023-05-11T04:10:33.796Z,101061.00
2023-05-11T04:13:00.949Z,101066.00
2023-05-11T04:15:28.797Z,101051.00
2023-05-11T04:17:56.391Z,101066.00
2023-05-11T04:20:23.663Z,101076.00
2023-05-11T04:22:50.800Z,101067.00
2023-05-11T04:25:18.123Z,101071.00
2023-05-11T04:27:45.392Z,101067.00
2023-05-11T04:30:13.154Z,101071.00
2023-05-11T04:32:40.437Z,101069.00
2023-05-11T04:35:08.088Z,101073.00
2023-05-11T04:37:35.369Z,101077.00
2023-05-11T04:40:04.678Z,101074.00
2023-05-11T04:42:32.236Z,101071.00
2023-05-11T04:44:59.458Z,101070.00
2023-05-11T04:47:26.785Z,101076.00
2023-05-11T04:49:54.022Z,101069.00
2023-05-11T04:52:21.179Z,101082.00
2023-05-11T04:54:48.269Z,101078.00
2023-05-11T04:57:15.492Z,101092.00
2023-05-11T04:59:42.727Z,101089.00
2023-05-11T05:02:09.985Z,101096.00
2023-05-11T05:04:37.141Z,101082.00
2023-05-11T05:07:04.603Z,101087.00
2023-05-11T05:09:31.818Z,101094.00
2023-05-11T05:11:58.910Z,101089.00
2023-05-11T05:14:26.043Z,101100.00
2023-05-11T05:16:54.724Z,101095.00
2023-05-11T05:19:21.991Z,101106.00
2023-05-11T05:21:49.170Z,101114.00
2023-05-11T05:24:16.547Z,101106.00
2023-05-11T05:26:44.108Z,101110.00
2023-05-11T05:29:11.480Z,101112.00
2023-05-11T05:31:38.753Z,101118.00
2023-05-11T05:34:06.682Z,101115.00
2023-05-11T05:36:37.576Z,101126.00
2023-05-11T05:39:08.981Z,101130.00
2023-05-11T05:41:37.059Z,101128.00
2023-05-11T05:44:04.464Z,101128.00
2023-05-11T05:46:31.687Z,101134.00
2023-05-11T05:48:58.868Z,101136.00
2023-05-11T05:51:26.006Z,101143.00
2023-05-11T05:53:53.132Z,101137.00
2023-05-11T05:56:21.891Z,101131.00
2023-05-11T05:58:49.168Z,101149.00
2023-05-11T06:01:16.482Z,101149.00
2023-05-11T06:03:45.220Z,101148.00
2023-05-11T06:06:16.620Z,101143.00
2023-05-11T06:08:45.558Z,101154.00
2023-05-11T06:11:12.871Z,101142.00
2023-05-11T06:13:40.035Z,101153.00
2023-05-11T06:16:07.323Z,101153.00
2023-05-11T06:18:34.563Z,101162.00
2023-05-11T06:21:01.968Z,101156.00
2023-05-11T06:23:29.197Z,101164.00
2023-05-11T06:25:56.506Z,101161.00
2023-05-11T06:28:24.606Z,101163.00
2023-05-11T06:30:52.992Z,101158.00
2023-05-11T06:33:20.337Z,101157.00
2023-05-11T06:35:47.526Z,101155.00
2023-05-11T06:38:14.858Z,101161.00
2023-05-11T06:40:42.124Z,101168.00
2023-05-11T06:43:09.421Z,101155.00
2023-05-11T06:45:39.195Z,101161.00
2023-05-11T06:48:06.897Z,101163.00
2023-05-11T06:50:33.968Z,101164.00
2023-05-11T06:53:01.577Z,101157.00
2023-05-11T06:55:29.210Z,101164.00
2023-05-11T06:57:56.380Z,101154.00
2023-05-11T07:00:23.597Z,101149.00
2023-05-11T07:02:51.082Z,101158.00
2023-05-11T07:05:18.676Z,101161.00
2023-05-11T07:07:46.573Z,101155.00
2023-05-11T07:10:13.765Z,101159.00
2023-05-11T07:12:41.270Z,101166.00
2023-05-11T07:15:09.260Z,101162.00
2023-05-11T07:17:36.621Z,101160.00
2023-05-11T07:20:04.066Z,101160.00
2023-05-11T07:22:31.460Z,101161.00
2023-05-11T07:25:00.805Z,101160.00
2023-05-11T07:27:28.004Z,101162.00
2023-05-11T07:29:55.304Z,101164.00
2023-05-11T07:32:22.540Z,101158.00
2023-05-11T07:34:49.715Z,101170.00
2023-05-11T07:37:16.985Z,101168.00
2023-05-11T07:39:44.175Z,101175.00
2023-05-11T07:42:11.414Z,101169.00
2023-05-11T07:44:38.636Z,101169.00
2023-05-11T07:47:06.223Z,101167.00
2023-05-11T07:49:42.814Z,101172.00
2023-05-11T07:52:11.206Z,101171.00
2023-05-11T07:54:39.054Z,101153.00
2023-05-11T07:57:06.878Z,101164.00
2023-05-11T07:59:34.254Z,101172.00
2023-05-11T08:02:01.437Z,101161.00
2023-05-11T08:04:30.196Z,101174.00
2023-05-11T08:06:58.440Z,101168.00
2023-05-11T08:09:25.781Z,101176.00
2023-05-11T08:11:54.249Z,101174.00
2023-05-11T08:14:21.515Z,101171.00
2023-05-11T08:16:49.870Z,101179.00
2023-05-11T08:19:17.396Z,101172.00
2023-05-11T08:21:46.611Z,101176.00
2023-05-11T08:24:14.069Z,101170.00
2023-05-11T08:26:41.297Z,101184.00
2023-05-11T08:29:08.706Z,101179.00
2023-05-11T08:31:36.066Z,101172.00
2023-05-11T08:34:03.602Z,101188.00
2023-05-11T08:36:31.126Z,101177.00
2023-05-11T08:38:59.371Z,101173.00
2023-05-11T08:41:26.883Z,101165.00
2023-05-11T08:43:58.502Z,101171.00
2023-05-11T08:46:30.899Z,101174.00
2023-05-11T08:48:59.133Z,101166.00
2023-05-11T08:51:28.377Z,101164.00
2023-05-11T08:53:57.978Z,101164.00
2023-05-11T08:56:27.896Z,101160.00
2023-05-11T08:58:59.088Z,101167.00
2023-05-11T09:01:29.895Z,101173.00
2023-05-11T09:03:58.667Z,101169.00
2023-05-11T09:06:28.311Z,101168.00
2023-05-11T09:08:55.632Z,101169.00
2023-05-11T09:11:23.062Z,101164.00
2023-05-11T09:13:51.524Z,101172.00
2023-05-11T09:16:32.927Z,101173.00
2023-05-11T09:19:04.470Z,101186.00
2023-05-11T09:21:32.684Z,101169.00
2023-05-11T09:24:00.982Z,101182.00
2023-05-11T09:26:30.017Z,101181.00
2023-05-11T09:31:45.119Z,101187.00
2023-05-11T09:34:14.134Z,101181.00
2023-05-11T09:36:53.475Z,101184.00
2023-05-11T09:39:42.161Z,101191.00
2023-05-11T09:42:22.593Z,101186.00
2023-05-11T09:44:53.212Z,101193.00
2023-05-11T09:47:24.397Z,101186.00
2023-05-11T09:49:51.635Z,101192.00
2023-05-11T09:52:21.352Z,101188.00
2023-05-11T09:54:52.473Z,101183.00
2023-05-11T09:57:29.990Z,101180.00
2023-05-11T10:00:00.322Z,101176.00
2023-05-11T10:02:31.402Z,101186.00
2023-05-11T10:05:01.945Z,101190.00
2023-05-11T10:07:35.245Z,101189.00
2023-05-11T10:10:06.083Z,101181.00
2023-05-11T10:12:34.889Z,101184.00
2023-05-11T10:15:05.342Z,101178.00
2023-05-11T10:17:33.569Z,101182.00
2023-05-11T10:20:03.444Z,101187.00
2023-05-11T10:22:32.829Z,101178.00
2023-05-11T10:25:00.669Z,101174.00
2023-05-11T10:27:29.040Z,101178.00
2023-05-11T10:30:16.273Z,101179.00
2023-05-11T10:32:48.949Z,101178.00
2023-05-11T10:35:16.523Z,101179.00
2023-05-11T10:37:44.011Z,101180.00
2023-05-11T10:40:12.171Z,101175.00
2023-05-11T10:43:06.437Z,101177.00
2023-05-11T10:45:57.668Z,101174.00
2023-05-11T10:49:28.996Z,101173.00
2023-05-11T10:52:18.590Z,101173.00
2023-05-11T10:55:05.864Z,101175.00
2023-05-11T10:58:10.759Z,101163.00
2023-05-11T11:01:21.523Z,101164.00
2023-05-11T11:04:06.963Z,101161.00
2023-05-11T11:06:38.143Z,101157.00
2023-05-11T11:09:16.486Z,101156.00
2023-05-11T11:11:46.638Z,101152.00
2023-05-11T11:14:19.227Z,101152.00
2023-05-11T11:17:18.419Z,101148.00
2023-05-11T11:19:46.143Z,101158.00
2023-05-11T11:22:35.223Z,101144.00
2023-05-11T11:25:13.224Z,101137.00
2023-05-11T11:27:49.146Z,101153.00
2023-05-11T11:30:21.773Z,101141.00
2023-05-11T11:33:13.083Z,101146.00
2023-05-11T11:35:43.122Z,101145.00
2023-05-11T11:38:21.620Z,101154.00
2023-05-11T11:40:54.468Z,101146.00
2023-05-11T11:43:28.628Z,101153.00
2023-05-11T11:45:59.809Z,101144.00
2023-05-11T11:48:36.135Z,101148.00
2023-05-11T11:51:14.073Z,101141.00
2023-05-11T11:53:41.448Z,101146.00
2023-05-11T11:56:15.704Z,101144.00
2023-05-11T11:58:43.381Z,101138.00
2023-05-11T12:01:16.521Z,101146.00
2023-05-11T12:04:11.663Z,101152.00
2023-05-11T12:06:43.171Z,101145.00
2023-05-11T12:09:10.682Z,101149.00
2023-05-11T12:11:43.204Z,101144.00
2023-05-11T12:14:12.595Z,101146.00
2023-05-11T12:16:39.759Z,101144.00
2023-05-11T12:19:06.919Z,101141.00
2023-05-11T12:21:34.061Z,101154.00
2023-05-11T12:24:05.124Z,101147.00
2023-05-11T12:26:34.363Z,101154.00
2023-05-11T12:29:11.805Z,101151.00
2023-05-11T12:31:46.986Z,101163.00
2023-05-11T12:34:21.453Z,101160.00
2023-05-11T12:36:52.709Z,101169.00
2023-05-11T12:39:26.012Z,101166.00
2023-05-11T12:41:56.599Z,101175.00
2023-05-11T12:44:27.031Z,101182.00
2023-05-11T12:46:55.116Z,101174.00
2023-05-11T12:49:27.843Z,101191.00
2023-05-11T12:52:08.140Z,101186.00
2023-05-11T12:54:38.395Z,101191.00
2023-05-11T12:57:08.965Z,101191.00
2023-05-11T12:59:39.408Z,101184.00
2023-05-11T13:02:21.177Z,101188.00
2023-05-11T13:04:49.000Z,101173.00
2023-05-11T13:07:27.033Z,101182.00
2023-05-11T13:10:01.924Z,101187.00
2023-05-11T13:12:34.411Z,101175.00
2023-05-11T13:15:12.837Z,101178.00
2023-05-11T13:17:42.723Z,101173.00
2023-05-11T13:20:21.204Z,101165.00
2023-05-11T13:22:50.870Z,101161.00
2023-05-11T13:25:26.400Z,101164.00
2023-05-11T13:27:55.878Z,101159.00
2023-05-11T13:30:23.409Z,101148.00
2023-05-11T13:32:50.659Z,101152.00
2023-05-11T13:35:18.080Z,101158.00
2023-05-11T13:37:47.266Z,101151.00
2023-05-11T13:40:14.408Z,101145.00
2023-05-11T13:42:43.238Z,101145.00
2023-05-11T13:45:12.191Z,101142.00
2023-05-11T13:47:39.432Z,101125.00
2023-05-11T13:50:08.437Z,101127.00
2023-05-11T13:52:39.337Z,101121.00
2023-05-11T13:55:07.461Z,101129.00
2023-05-11T13:57:34.983Z,101129.00
2023-05-11T14:00:02.390Z,101121.00
2023-05-11T14:02:29.744Z,101118.00
2023-05-11T14:04:57.027Z,101124.00
2023-05-11T14:07:32.509Z,101120.00
2023-05-11T14:10:07.394Z,101114.00
2023-05-11T14:12:34.558Z,101120.00
2023-05-11T14:15:01.702Z,101112.00
2023-05-11T14:17:30.879Z,101111.00
2023-05-11T14:20:00.047Z,101117.00
2023-05-11T14:22:28.718Z,101111.00
2023-05-11T14:24:56.465Z,101114.00
2023-05-11T14:27:24.232Z,101109.00
2023-05-11T14:29:52.390Z,101110.00
2023-05-11T14:32:20.184Z,101113.00
2023-05-11T14:34:48.066Z,101118.00
2023-05-11T14:37:15.361Z,101115.00
2023-05-11T14:39:42.647Z,101099.00
2023-05-11T14:42:12.234Z,101112.00
2023-05-11T14:44:39.701Z,101104.00
2023-05-11T14:47:08.333Z,101106.00
2023-05-11T14:49:35.550Z,101111.00
2023-05-11T14:52:02.864Z,101116.00
2023-05-11T14:54:31.239Z,101118.00
2023-05-11T14:56:59.652Z,101115.00
2023-05-11T14:59:27.400Z,101107.00
2023-05-11T15:01:54.804Z,101111.00
2023-05-11T15:04:22.455Z,101096.00
2023-05-11T15:06:49.988Z,101101.00
2023-05-11T15:09:17.648Z,101106.00
2023-05-11T15:11:46.842Z,101089.00
2023-05-11T15:14:14.029Z,101096.00
2023-05-11T15:16:41.159Z,101110.00
2023-05-11T15:19:08.532Z,101101.00
2023-05-11T15:21:36.354Z,101104.00
2023-05-11T15:24:03.651Z,101110.00
2023-05-11T15:26:31.262Z,101114.00
2023-05-11T15:28:59.927Z,101112.00
2023-05-11T15:31:27.271Z,101111.00
2023-05-11T15:33:57.039Z,101118.00
2023-05-11T15:36:24.382Z,101120.00
2023-05-11T15:38:51.593Z,101124.00
2023-05-11T15:41:18.724Z,101125.00
2023-05-11T15:43:46.222Z,101124.00
2023-05-11T15:46:13.763Z,101126.00
2023-05-11T15:48:40.989Z,101128.00
2023-05-11T15:51:08.113Z,101119.00
2023-05-11T15:53:36.934Z,101114.00
2023-05-11T15:56:04.416Z,101121.00
2023-05-11T15:58:31.779Z,101124.00
2023-05-11T16:00:59.293Z,101117.00
2023-05-11T16:03:26.841Z,101123.00
2023-05-11T16:05:56.282Z,101118.00
2023-05-11T16:08:23.484Z,101118.00
2023-05-11T16:10:52.048Z,101117.00
2023-05-11T16:13:19.297Z,101118.00
2023-05-11T16:15:46.685Z,101110.00
2023-05-11T16:18:14.359Z,101123.00
2023-05-11T16:20:41.703Z,101115.00
2023-05-11T16:23:09.099Z,101116.00
2023-05-11T16:25:36.365Z,101116.00
2023-05-11T16:28:04.416Z,101120.00
2023-05-11T16:30:32.697Z,101125.00
2023-05-11T16:33:00.219Z,101126.00
2023-05-11T16:35:27.788Z,101118.00
2023-05-11T16:37:56.800Z,101117.00
2023-05-11T16:40:24.372Z,101112.00
2023-05-11T16:42:52.040Z,101109.00
2023-05-11T16:45:21.939Z,101114.00
2023-05-11T16:47:49.537Z,101121.00
2023-05-11T16:50:18.955Z,101116.00
2023-05-11T16:52:46.337Z,101111.00
2023-05-11T16:55:16.169Z,101111.00
2023-05-11T16:57:44.680Z,101112.00
2023-05-11T17:00:13.633Z,101121.00
2023-05-11T17:02:41.676Z,101122.00
2023-05-11T17:05:11.231Z,101119.00
2023-05-11T17:07:38.886Z,101125.00
2023-05-11T17:10:07.488Z,101130.00
2023-05-11T17:12:35.939Z,101123.00
2023-05-11T17:15:03.820Z,101128.00
2023-05-11T17:18:41.190Z,101133.00
2023-05-11T17:21:08.775Z,101137.00
2023-05-11T17:23:36.243Z,101118.00
2023-05-11T17:26:16.097Z,101124.00
2023-05-11T17:28:43.313Z,101135.00
2023-05-11T17:31:15.903Z,101123.00
2023-05-11T17:33:43.289Z,101134.00
2023-05-11T17:36:11.889Z,101119.00
2023-05-11T17:38:39.206Z,101131.00
2023-05-11T17:41:06.612Z,101133.00
2023-05-11T17:43:36.619Z,101129.00
2023-05-11T17:46:04.624Z,101136.00
2023-05-11T17:48:32.601Z,101129.00
2023-05-11T17:51:02.233Z,101138.00
2023-05-11T17:53:29.867Z,101138.00
2023-05-11T17:56:00.610Z,101139.00
2023-05-11T17:58:27.840Z,101141.00
2023-05-11T18:00:55.207Z,101145.00
2023-05-11T18:03:22.785Z,101131.00
2023-05-11T18:05:50.122Z,101138.00
2023-05-11T18:08:17.538Z,101139.00
2023-05-11T18:10:44.901Z,101141.00
2023-05-11T18:13:13.139Z,101138.00
2023-05-11T18:15:40.359Z,101145.00
2023-05-11T18:18:07.746Z,101150.00
2023-05-11T18:20:37.767Z,101154.00
2023-05-11T18:23:07.257Z,101148.00
2023-05-11T18:25:34.634Z,101149.00
2023-05-11T18:28:03.243Z,101157.00
2023-05-11T18:30:31.006Z,101158.00
2023-05-11T18:32:59.232Z,101162.00
2023-05-11T18:35:26.548Z,101161.00
2023-05-11T18:37:55.175Z,101160.00
2023-05-11T18:40:23.142Z,101159.00
2023-05-11T18:42:52.966Z,101164.00
2023-05-11T18:45:20.322Z,101159.00
2023-05-11T18:47:47.651Z,101163.00
2023-05-11T18:50:18.160Z,101160.00
2023-05-11T18:52:45.592Z,101163.00
2023-05-11T18:55:12.935Z,101161.00
2023-05-11T18:57:40.758Z,101164.00
2023-05-11T19:00:10.521Z,101164.00
2023-05-11T19:02:39.953Z,101166.00
2023-05-11T19:05:08.253Z,101165.00
2023-05-11T19:07:38.091Z,101168.00
2023-05-11T19:10:06.715Z,101185.00
2023-05-11T19:12:33.867Z,101180.00
2023-05-11T19:15:01.089Z,101176.00
2023-05-11T19:17:28.923Z,101187.00
2023-05-11T19:19:57.020Z,101189.00
2023-05-11T19:22:31.229Z,101190.00
2023-05-11T19:24:58.505Z,101203.00
2023-05-11T19:27:25.720Z,101198.00
2023-05-11T19:29:53.015Z,101202.00
2023-05-11T19:32:20.602Z,101199.00
2023-05-11T19:34:47.771Z,101198.00
2023-05-11T19:37:15.118Z,101200.00
2023-05-11T19:39:42.344Z,101207.00
2023-05-11T19:42:09.699Z,101207.00
2023-05-11T19:44:43.339Z,101208.00
2023-05-11T19:47:10.867Z,101209.00
2023-05-11T19:49:38.076Z,101205.00
2023-05-11T19:52:05.881Z,101210.00
2023-05-11T19:54:33.243Z,101208.00
2023-05-11T19:57:00.547Z,101211.00
2023-05-11T19:59:33.063Z,101210.00
2023-05-11T20:02:01.588Z,101218.00
2023-05-11T20:04:30.270Z,101222.00
2023-05-11T20:06:58.221Z,101217.00
2023-05-11T20:09:25.841Z,101226.00
2023-05-11T20:11:53.066Z,101224.00
2023-05-11T20:14:22.353Z,101220.00
2023-05-11T20:16:49.842Z,101222.00
2023-05-11T20:19:17.261Z,101234.00
2023-05-11T20:21:44.437Z,101222.00
2023-05-11T20:24:12.124Z,101232.00
2023-05-11T20:26:39.313Z,101238.00
2023-05-11T20:29:09.364Z,101240.00
2023-05-11T20:31:38.029Z,101232.00
2023-05-11T20:34:07.748Z,101232.00
2023-05-11T20:36:35.145Z,101221.00
2023-05-11T20:39:02.599Z,101230.00
2023-05-11T20:41:30.073Z,101230.00
2023-05-11T20:43:57.170Z,101230.00
2023-05-11T20:46:24.373Z,101240.00
2023-05-11T20:48:52.237Z,101226.00
2023-05-11T20:51:23.490Z,101227.00
2023-05-11T20:53:50.820Z,101222.00
2023-05-11T20:56:20.097Z,101223.00
2023-05-11T20:58:47.555Z,101224.00
2023-05-11T21:01:15.057Z,101223.00
2023-05-11T21:03:42.422Z,101221.00
2023-05-11T21:06:09.851Z,101218.00
2023-05-11T21:08:37.043Z,101222.00
2023-05-11T21:11:04.424Z,101218.00
2023-05-11T21:13:33.207Z,101218.00
2023-05-11T21:16:00.443Z,101220.00
2023-05-11T21:18:32.227Z,101210.00
2023-05-11T21:20:59.810Z,101214.00
2023-05-11T21:23:29.749Z,101214.00
2023-05-11T21:25:59.159Z,101218.00
2023-05-11T21:28:27.397Z,101215.00
2023-05-11T21:30:55.382Z,101215.00
2023-05-11T21:33:22.679Z,101217.00
2023-05-11T21:35:50.247Z,101220.00
2023-05-11T21:38:17.934Z,101223.00
2023-05-11T21:40:52.732Z,101215.00
2023-05-11T21:43:20.281Z,101207.00
2023-05-11T21:45:49.862Z,101204.00
2023-05-11T21:48:36.071Z,101216.00
2023-05-11T21:51:06.454Z,101218.00
2023-05-11T21:53:33.905Z,101213.00
2023-05-11T21:56:29.490Z,101216.00
2023-05-11T21:58:56.829Z,101215.00
2023-05-11T22:01:24.031Z,101211.00
2023-05-11T22:03:51.257Z,101206.00
2023-05-11T22:06:18.521Z,101211.00
2023-05-11T22:08:46.569Z,101202.00
2023-05-11T22:11:13.914Z,101207.00
2023-05-11T22:13:41.295Z,101210.00
2023-05-11T22:16:08.851Z,101197.00
2023-05-11T22:18:36.168Z,101212.00
2023-05-11T22:21:03.761Z,101200.00
2023-05-11T22:23:31.356Z,101204.00
2023-05-11T22:25:58.727Z,101200.00
2023-05-11T22:28:26.040Z,101208.00
2023-05-11T22:30:53.362Z,101216.00
2023-05-11T22:33:20.620Z,101202.00
2023-05-11T22:35:47.886Z,101201.00
2023-05-11T22:38:15.076Z,101205.00
2023-05-11T22:40:42.580Z,101187.00
2023-05-11T22:43:09.795Z,101199.00
2023-05-11T22:45:37.768Z,101195.00
2023-05-11T22:48:05.678Z,101196.00
2023-05-11T22:50:32.860Z,101190.00
2023-05-11T22:53:00.324Z,101199.00
2023-05-11T22:55:28.251Z,101206.00
2023-05-11T22:57:55.414Z,101195.00
2023-05-11T23:00:22.985Z,101196.00
2023-05-11T23:02:50.413Z,101205.00
2023-05-11T23:05:17.734Z,101192.00
2023-05-11T23:07:45.008Z,101189.00
2023-05-11T23:10:13.936Z,101187.00
2023-05-11T23:12:41.192Z,101174.00
2023-05-11T23:15:09.862Z,101188.00
2023-05-11T23:17:37.198Z,101185.00
2023-05-11T23:20:04.983Z,101177.00
2023-05-11T23:22:32.184Z,101185.00
2023-05-11T23:25:00.660Z,101186.00
2023-05-11T23:27:28.650Z,101176.00
2023-05-11T23:29:55.839Z,101174.00
2023-05-11T23:32:22.996Z,101170.00
2023-05-11T23:34:50.246Z,101170.00
2023-05-11T23:37:17.480Z,101171.00
2023-05-11T23:39:44.630Z,101169.00
2023-05-11T23:42:11.986Z,101170.00
2023-05-11T23:44:39.253Z,101167.00
2023-05-11T23:47:06.907Z,101167.00
2023-05-11T23:49:34.122Z,101165.00
2023-05-11T23:52:01.281Z,101165.00
2023-05-11T23:54:31.228Z,101153.00
2023-05-11T23:56:59.882Z,101164.00
2023-05-11T23:59:27.080Z,101158.00
